Time;durP1;ratioP1;P1;durP2;ratioP2;P2;SDS_P1;SDS_P2;PMS_P1;PMS_P2;Temp;Humidity;BMP_temperature;BMP_pressure;BME280_temperature;BME280_humidity;BME280_pressure;Samples;Min_cycle;Max_cycle;Signal;HPM_P1;HPM_P2
2022/11/25 00:00:45;;;;;;;12.60;3.30;;;10.70;1.00;;;;;;5031369;28;20583;-70
2022/11/25 00:03:10;;;;;;;14.20;3.65;;;10.60;1.00;;;;;;5030519;28;20068;-70
2022/11/25 00:05:36;;;;;;;11.93;2.88;;;10.60;1.00;;;;;;5031286;28;20041;-69
2022/11/25 00:08:01;;;;;;;16.73;3.67;;;10.60;1.00;;;;;;5029337;28;20040;-69
2022/11/25 00:10:27;;;;;;;11.02;2.40;;;10.60;99.90;;;;;;5029714;28;20134;-69
2022/11/25 00:12:52;;;;;;;8.63;2.63;;;10.60;1.00;;;;;;5028745;28;20407;-69
2022/11/25 00:15:18;;;;;;;8.70;2.55;;;10.60;1.00;;;;;;5023321;28;20401;-70
2022/11/25 00:17:43;;;;;;;10.38;3.22;;;10.70;1.00;;;;;;5029886;28;20558;-69
2022/11/25 00:20:09;;;;;;;15.60;3.78;;;10.70;99.90;;;;;;5028473;28;20458;-69
2022/11/25 00:22:35;;;;;;;17.02;3.30;;;10.70;1.00;;;;;;5031518;28;20037;-69
2022/11/25 00:25:01;;;;;;;14.13;3.63;;;10.60;1.00;;;;;;5033113;28;20037;-68
2022/11/25 00:27:26;;;;;;;10.90;2.65;;;10.60;1.00;;;;;;5030504;28;20056;-69
2022/11/25 00:29:52;;;;;;;11.15;2.97;;;10.70;99.90;;;;;;5031807;28;20132;-70
2022/11/25 00:32:18;;;;;;;13.88;3.75;;;10.70;1.00;;;;;;5034186;28;20486;-69
2022/11/25 00:34:43;;;;;;;11.88;2.92;;;10.80;1.00;;;;;;5034607;28;20072;-69
2022/11/25 00:37:09;;;;;;;13.30;3.53;;;10.70;1.00;;;;;;5034677;28;20044;-68
2022/11/25 00:39:34;;;;;;;11.75;2.95;;;10.70;1.00;;;;;;5034801;28;20033;-69
2022/11/25 00:44:44;;;;;;;14.98;3.22;;;10.70;1.00;;;;;;5015477;28;20104;-69
2022/11/25 00:47:15;;;;;;;21.10;4.10;;;10.70;1.00;;;;;;5032095;28;20442;-69
2022/11/25 00:49:45;;;;;;;22.38;3.70;;;10.60;99.90;;;;;;5032624;28;20068;-68
2022/11/25 00:52:14;;;;;;;15.98;3.20;;;10.70;1.00;;;;;;5034083;28;20341;-69
2022/11/25 00:54:39;;;;;;;19.15;3.75;;;10.70;90.30;;;;;;5032294;28;20733;-69
2022/11/25 00:57:05;;;;;;;15.95;2.80;;;10.60;99.90;;;;;;5034593;28;20037;-69
2022/11/25 00:59:30;;;;;;;16.67;3.83;;;10.60;99.90;;;;;;5033471;28;20045;-69
2022/11/25 01:01:56;;;;;;;16.17;3.53;;;10.70;99.90;;;;;;5031396;28;20053;-69
2022/11/25 01:04:22;;;;;;;13.93;4.13;;;10.60;99.90;;;;;;5034244;28;20042;-69
2022/11/25 01:06:48;;;;;;;19.05;3.88;;;10.60;1.00;;;;;;5028359;28;20057;-70
2022/11/25 01:09:13;;;;;;;16.95;3.25;;;10.50;1.00;;;;;;5032000;28;20046;-69
2022/11/25 01:11:39;;;;;;;15.55;3.35;;;10.60;99.90;;;;;;5034327;28;20107;-70
2022/11/25 01:14:05;;;;;;;16.83;3.10;;;10.60;99.90;;;;;;5032464;28;20045;-69
2022/11/25 01:16:30;;;;;;;18.55;3.67;;;10.40;99.90;;;;;;5031226;28;20036;-69
2022/11/25 01:19:00;;;;;;;13.15;2.95;;;10.40;99.90;;;;;;5034412;28;20030;-69
2022/11/25 01:21:28;;;;;;;15.55;4.07;;;10.50;91.00;;;;;;5034287;28;20037;-69
2022/11/25 01:23:54;;;;;;;15.77;4.03;;;10.40;99.90;;;;;;5032796;28;20038;-69
2022/11/25 01:26:22;;;;;;;17.17;3.83;;;10.40;88.70;;;;;;5033030;28;20049;-69
2022/11/25 01:28:52;;;;;;;24.48;5.55;;;10.50;99.90;;;;;;5020665;28;20483;-69
2022/11/25 01:31:20;;;;;;;14.45;3.00;;;10.30;13.40;;;;;;5032875;28;20042;-69
2022/11/25 01:33:47;;;;;;;19.25;3.25;;;10.60;99.90;;;;;;5028188;28;20046;-69
2022/11/25 01:36:15;;;;;;;16.58;3.55;;;10.60;99.90;;;;;;5021562;28;20050;-69
2022/11/25 01:38:41;;;;;;;14.02;3.35;;;10.40;99.90;;;;;;5033797;28;20037;-69
2022/11/25 01:41:10;;;;;;;16.45;3.53;;;10.40;99.90;;;;;;5027808;28;20034;-69
2022/11/25 01:43:36;;;;;;;15.65;3.50;;;10.70;99.90;;;;;;5030588;28;20045;-68
2022/11/25 01:46:09;;;;;;;16.35;3.60;;;10.70;99.90;;;;;;5030826;28;20503;-68
2022/11/25 01:48:48;;;;;;;23.67;4.20;;;10.60;99.90;;;;;;5032398;28;20041;-68
2022/11/25 01:51:25;;;;;;;18.75;3.90;;;10.70;99.90;;;;;;5032410;28;20045;-68
2022/11/25 01:53:52;;;;;;;13.93;4.07;;;10.40;99.90;;;;;;5014256;28;20050;-68
2022/11/25 01:56:18;;;;;;;10.90;2.85;;;10.80;99.90;;;;;;5017920;28;20103;-68
2022/11/25 01:58:46;;;;;;;24.50;3.55;;;10.50;99.90;;;;;;5030405;28;20411;-68
2022/11/25 02:01:13;;;;;;;14.80;3.10;;;10.80;99.90;;;;;;5032356;28;20099;-68
2022/11/25 02:03:43;;;;;;;16.45;3.78;;;10.40;99.90;;;;;;5033192;28;20049;-68
2022/11/25 02:06:34;;;;;;;14.18;3.58;;;10.40;99.90;;;;;;5029003;28;20052;-68
2022/11/25 02:09:07;;;;;;;12.40;2.75;;;10.50;99.90;;;;;;5023593;28;20056;-68
2022/11/25 02:11:37;;;;;;;12.38;2.95;;;10.80;99.90;;;;;;5032835;28;20045;-68
2022/11/25 02:14:04;;;;;;;17.65;3.60;;;10.50;99.90;;;;;;5031785;28;20041;-68
2022/11/25 02:16:29;;;;;;;11.10;2.60;;;10.50;99.90;;;;;;5033562;28;20046;-68
2022/11/25 02:18:55;;;;;;;20.52;3.95;;;10.40;99.90;;;;;;5030786;28;20071;-69
2022/11/25 02:21:29;;;;;;;20.13;3.40;;;10.50;99.90;;;;;;5033359;28;20079;-68
2022/11/25 02:23:58;;;;;;;13.77;2.78;;;10.50;99.90;;;;;;5032803;28;20479;-68
2022/11/25 02:26:24;;;;;;;23.60;4.18;;;10.50;99.90;;;;;;5031837;28;20045;-68
2022/11/25 02:28:50;;;;;;;17.13;4.28;;;10.70;99.90;;;;;;5019278;28;20120;-69
2022/11/25 02:31:20;;;;;;;16.52;2.92;;;10.40;99.90;;;;;;5032518;28;20107;-69
2022/11/25 02:33:45;;;;;;;12.43;3.15;;;10.50;99.90;;;;;;5031377;28;20048;-69
2022/11/25 02:36:15;;;;;;;14.88;2.92;;;10.50;99.90;;;;;;5031646;28;20049;-69
2022/11/25 02:38:53;;;;;;;11.25;3.65;;;10.50;99.90;;;;;;5030574;28;20111;-69
2022/11/25 02:41:26;;;;;;;24.30;3.47;;;10.90;99.90;;;;;;5032741;28;20115;-69
2022/11/25 02:43:52;;;;;;;21.08;4.13;;;11.00;99.90;;;;;;5014778;28;20049;-69
2022/11/25 02:46:20;;;;;;;13.52;3.60;;;10.90;99.90;;;;;;5008598;28;20045;-68
2022/11/25 02:48:46;;;;;;;14.00;3.28;;;10.90;99.90;;;;;;5030045;28;20034;-68
2022/11/25 02:51:15;;;;;;;15.30;3.35;;;10.50;99.90;;;;;;5032685;28;20041;-69
2022/11/25 02:53:41;;;;;;;18.38;3.65;;;10.90;99.90;;;;;;5031243;28;20498;-68
2022/11/25 02:56:09;;;;;;;13.45;4.10;;;10.80;99.90;;;;;;5016000;28;20081;-69
2022/11/25 02:58:34;;;;;;;11.27;3.28;;;10.50;99.90;;;;;;5012643;28;20495;-69
2022/11/25 03:01:00;;;;;;;15.98;3.63;;;10.90;99.90;;;;;;5032048;28;20116;-69
2022/11/25 03:03:25;;;;;;;22.30;4.50;;;10.90;99.90;;;;;;5031920;28;20029;-69
2022/11/25 03:05:51;;;;;;;18.85;3.60;;;10.50;99.90;;;;;;5031680;28;20049;-69
2022/11/25 03:08:16;;;;;;;13.15;3.60;;;10.90;99.90;;;;;;5021360;28;20049;-69
2022/11/25 03:10:42;;;;;;;11.10;2.90;;;10.80;99.90;;;;;;5028642;28;20041;-68
2022/11/25 03:13:09;;;;;;;13.75;3.28;;;10.80;99.90;;;;;;5028956;28;20591;-69
2022/11/25 03:15:35;;;;;;;14.93;3.88;;;10.70;99.90;;;;;;5032029;28;20570;-69
2022/11/25 03:18:02;;;;;;;12.25;2.90;;;11.00;99.90;;;;;;5032136;28;20040;-68
2022/11/25 03:20:28;;;;;;;12.55;3.65;;;10.80;99.90;;;;;;5046351;28;20053;-69
2022/11/25 03:22:53;;;;;;;13.35;3.30;;;10.60;99.90;;;;;;5031939;28;20026;-69
2022/11/25 03:25:19;;;;;;;15.52;3.58;;;10.60;99.90;;;;;;5031054;28;20537;-68
2022/11/25 03:27:45;;;;;;;20.30;4.05;;;10.80;99.90;;;;;;5021796;28;20056;-69
2022/11/25 03:30:22;;;;;;;17.73;3.92;;;11.00;99.90;;;;;;5010398;28;20156;-68
2022/11/25 03:32:48;;;;;;;12.00;2.75;;;11.00;99.90;;;;;;5041532;28;20171;-69
2022/11/25 03:35:15;;;;;;;15.57;3.10;;;10.90;99.90;;;;;;5031914;28;20128;-69
2022/11/25 03:37:41;;;;;;;12.95;2.80;;;10.60;99.90;;;;;;5027594;28;20120;-68
2022/11/25 03:40:08;;;;;;;17.42;4.82;;;10.60;99.90;;;;;;5018031;28;20164;-68
2022/11/25 03:42:34;;;;;;;11.75;3.17;;;11.00;99.90;;;;;;5028412;28;20117;-68
2022/11/25 03:45:00;;;;;;;30.90;5.78;;;10.90;99.90;;;;;;5031748;28;20045;-68
2022/11/25 03:47:25;;;;;;;18.95;4.47;;;10.50;99.90;;;;;;5027249;28;20049;-69
2022/11/25 03:49:51;;;;;;;12.95;3.53;;;10.50;99.90;;;;;;5015773;28;20029;-69
2022/11/25 03:52:17;;;;;;;9.48;2.60;;;10.80;99.90;;;;;;5029731;28;20061;-69
2022/11/25 03:54:43;;;;;;;13.45;3.28;;;10.50;99.90;;;;;;5030221;28;20063;-69
2022/11/25 03:57:09;;;;;;;20.10;4.40;;;11.00;99.90;;;;;;5031507;28;20026;-69
2022/11/25 03:59:34;;;;;;;14.85;3.75;;;10.90;99.90;;;;;;5032635;28;20033;-69
2022/11/25 04:02:00;;;;;;;21.20;4.80;;;10.90;99.90;;;;;;5035814;28;20037;-68
2022/11/25 04:04:27;;;;;;;16.80;5.03;;;10.60;99.90;;;;;;5034834;28;20053;-69
2022/11/25 04:06:53;;;;;;;19.75;4.85;;;10.60;99.90;;;;;;5034589;28;20041;-68
2022/11/25 04:09:19;;;;;;;14.38;4.10;;;10.60;99.90;;;;;;5036037;28;20090;-69
2022/11/25 04:14:29;;;;;;;16.60;4.47;;;11.00;99.90;;;;;;5033235;28;20522;-68
2022/11/25 04:16:55;;;;;;;15.95;4.20;;;11.00;99.90;;;;;;5034214;28;20118;-68
2022/11/25 04:19:21;;;;;;;17.00;5.55;;;10.80;99.90;;;;;;5035945;28;20038;-68
2022/11/25 04:21:46;;;;;;;23.95;5.70;;;11.00;99.90;;;;;;5034746;28;20041;-69
2022/11/25 04:24:12;;;;;;;20.88;5.35;;;10.60;99.90;;;;;;5032639;28;20041;-68
2022/11/25 04:26:38;;;;;;;16.60;5.68;;;10.60;99.90;;;;;;5033880;28;20056;-68
2022/11/25 04:29:04;;;;;;;21.13;5.65;;;10.60;99.90;;;;;;5034954;28;20510;-68
2022/11/25 04:31:29;;;;;;;22.88;5.38;;;10.50;99.90;;;;;;5034989;28;20045;-69
2022/11/25 04:33:55;;;;;;;19.00;5.35;;;10.60;99.90;;;;;;5032267;28;20037;-68
2022/11/25 04:36:20;;;;;;;17.90;5.45;;;10.50;99.90;;;;;;5033856;28;20156;-69
2022/11/25 04:38:46;;;;;;;13.00;4.97;;;10.60;99.90;;;;;;5035159;28;20029;-68
2022/11/25 04:41:12;;;;;;;21.85;6.57;;;10.50;99.90;;;;;;5032806;28;20033;-69
2022/11/25 04:43:37;;;;;;;24.92;7.30;;;10.80;99.90;;;;;;5027810;28;20044;-68
2022/11/25 04:46:03;;;;;;;22.45;6.78;;;10.80;99.90;;;;;;5032812;28;20045;-69
2022/11/25 04:48:29;;;;;;;15.20;5.32;;;11.00;99.90;;;;;;5034027;28;20063;-68
2022/11/25 04:50:55;;;;;;;20.25;5.40;;;10.50;99.90;;;;;;5033842;28;20333;-68
2022/11/25 04:53:20;;;;;;;16.15;6.10;;;10.60;99.90;;;;;;5033949;28;20077;-68
2022/11/25 04:55:46;;;;;;;22.23;5.72;;;10.70;99.90;;;;;;5033365;28;20042;-68
2022/11/25 04:58:12;;;;;;;17.83;5.88;;;10.50;99.90;;;;;;5028902;28;20033;-68
2022/11/25 05:00:38;;;;;;;15.55;4.85;;;10.50;99.90;;;;;;5034600;28;20168;-68
2022/11/25 05:03:03;;;;;;;15.95;5.18;;;10.70;99.90;;;;;;5032485;28;20079;-68
2022/11/25 05:05:29;;;;;;;22.65;6.10;;;10.60;99.90;;;;;;5033573;28;20053;-68
2022/11/25 05:07:55;;;;;;;25.65;6.63;;;10.80;99.90;;;;;;5026941;28;20072;-69
2022/11/25 05:10:20;;;;;;;20.05;5.20;;;10.60;99.90;;;;;;5034566;28;20533;-68
2022/11/25 05:12:46;;;;;;;19.67;4.93;;;10.60;99.90;;;;;;5032472;28;20056;-69
2022/11/25 05:15:12;;;;;;;13.48;4.07;;;11.10;99.90;;;;;;5033264;28;20045;-69
2022/11/25 05:17:38;;;;;;;12.73;4.70;;;10.90;99.90;;;;;;5032585;28;20046;-69
2022/11/25 05:20:04;;;;;;;20.42;5.18;;;11.20;99.90;;;;;;5014846;28;20042;-68
2022/11/25 05:22:32;;;;;;;26.90;6.00;;;11.30;99.90;;;;;;5028103;28;20037;-68
2022/11/25 05:24:58;;;;;;;18.98;4.95;;;10.80;99.90;;;;;;5024579;28;20041;-69
2022/11/25 05:27:25;;;;;;;19.30;5.47;;;10.70;99.90;;;;;;5028664;28;20066;-68
2022/11/25 05:29:51;;;;;;;14.93;4.50;;;11.10;99.90;;;;;;5032299;28;20068;-69
2022/11/25 05:32:16;;;;;;;18.08;5.50;;;11.20;99.90;;;;;;5032239;28;20041;-69
2022/11/25 05:34:42;;;;;;;14.35;4.95;;;10.70;99.90;;;;;;5034076;28;20091;-68
2022/11/25 05:37:11;;;;;;;15.65;5.22;;;10.80;99.90;;;;;;5033958;28;20053;-68
2022/11/25 05:39:36;;;;;;;13.30;5.15;;;10.70;99.90;;;;;;5032455;28;20076;-68
2022/11/25 05:42:02;;;;;;;20.48;6.05;;;10.80;99.90;;;;;;5012839;28;20447;-68
2022/11/25 05:44:27;;;;;;;27.60;6.75;;;10.70;99.90;;;;;;5033492;28;20391;-69
2022/11/25 05:46:53;;;;;;;13.00;5.30;;;10.80;99.90;;;;;;5033845;28;20172;-69
2022/11/25 05:49:19;;;;;;;23.85;7.20;;;10.70;99.90;;;;;;5034001;28;20191;-68
2022/11/25 05:51:46;;;;;;;17.25;5.45;;;10.60;99.90;;;;;;5031676;28;20044;-69
2022/11/25 05:54:12;;;;;;;26.15;7.00;;;10.60;99.90;;;;;;5026896;28;20038;-68
2022/11/25 05:56:37;;;;;;;17.65;5.20;;;11.00;99.90;;;;;;5023900;28;20546;-68
2022/11/25 05:59:04;;;;;;;19.90;5.47;;;10.80;99.90;;;;;;5008631;28;20476;-68
2022/11/25 06:01:29;;;;;;;19.35;6.00;;;11.00;99.90;;;;;;5028649;28;20033;-69
2022/11/25 06:03:58;;;;;;;18.70;6.35;;;10.80;99.90;;;;;;5026072;28;20076;-69
2022/11/25 06:06:24;;;;;;;21.95;5.40;;;10.50;99.90;;;;;;5031243;28;20104;-68
2022/11/25 06:08:49;;;;;;;25.35;6.28;;;10.40;99.90;;;;;;5030837;28;20489;-68
2022/11/25 06:11:16;;;;;;;15.55;6.10;;;10.40;99.90;;;;;;5029462;28;20514;-68
2022/11/25 06:13:43;;;;;;;19.23;5.80;;;10.80;99.90;;;;;;5030297;28;20400;-67
2022/11/25 06:16:21;;;;;;;23.30;6.47;;;10.40;99.90;;;;;;5031220;28;20485;-68
2022/11/25 06:18:47;;;;;;;18.65;5.07;;;10.40;99.90;;;;;;5030323;28;20095;-68
2022/11/25 06:21:13;;;;;;;26.70;7.97;;;10.20;99.90;;;;;;5032474;28;20041;-68
2022/11/25 06:23:38;;;;;;;25.23;6.35;;;10.10;99.90;;;;;;5029558;28;20029;-69
2022/11/25 06:26:13;;;;;;;26.13;7.18;;;10.10;99.90;;;;;;5021149;28;20048;-68
2022/11/25 06:28:38;;;;;;;20.77;5.53;;;10.10;99.90;;;;;;5029485;28;20510;-68
2022/11/25 06:31:10;;;;;;;10.32;4.15;;;10.00;99.90;;;;;;5032423;28;20034;-68
2022/11/25 06:33:36;;;;;;;13.85;3.88;;;10.50;99.90;;;;;;5031412;28;20060;-69
2022/11/25 06:36:05;;;;;;;20.33;4.90;;;10.50;99.90;;;;;;5024215;28;20083;-69
2022/11/25 06:38:30;;;;;;;17.58;5.43;;;10.50;99.90;;;;;;5032120;28;20025;-68
2022/11/25 06:41:04;;;;;;;26.52;6.00;;;10.50;99.90;;;;;;5027159;28;20549;-68
2022/11/25 06:43:31;;;;;;;14.70;6.10;;;10.00;99.90;;;;;;5024873;28;20041;-67
2022/11/25 06:46:05;;;;;;;17.00;5.85;;;9.90;99.90;;;;;;5027178;28;20129;-68
2022/11/25 06:48:31;;;;;;;18.67;5.47;;;9.90;99.90;;;;;;5028329;28;20081;-68
2022/11/25 06:50:59;;;;;;;16.98;6.05;;;10.20;99.90;;;;;;5026466;28;20050;-69
2022/11/25 06:53:25;;;;;;;12.90;5.55;;;10.50;99.90;;;;;;5024202;28;20041;-69
2022/11/25 06:56:21;;;;;;;20.80;6.47;;;10.00;99.90;;;;;;5017970;28;20049;-68
2022/11/25 06:58:47;;;;;;;20.05;6.90;;;10.00;99.90;;;;;;5028680;28;20049;-68
2022/11/25 07:01:20;;;;;;;25.08;8.38;;;10.50;99.90;;;;;;5028713;28;20033;-69
2022/11/25 07:03:49;;;;;;;22.90;9.07;;;10.30;99.90;;;;;;5027777;28;20490;-69
2022/11/25 07:06:16;;;;;;;25.42;8.43;;;10.30;99.90;;;;;;5028653;28;20033;-70
2022/11/25 07:08:42;;;;;;;24.17;8.02;;;10.30;99.90;;;;;;5023469;28;20038;-69
2022/11/25 07:11:14;;;;;;;22.88;7.10;;;9.90;99.90;;;;;;5027415;28;20103;-69
2022/11/25 07:13:40;;;;;;;11.65;6.00;;;10.00;99.90;;;;;;5026209;28;20437;-70
2022/11/25 07:16:06;;;;;;;21.02;7.78;;;10.30;99.90;;;;;;5019154;28;20038;-70
2022/11/25 07:18:34;;;;;;;15.13;6.32;;;10.20;99.90;;;;;;5025841;28;20445;-70
2022/11/25 07:21:02;;;;;;;20.77;7.05;;;10.00;99.90;;;;;;5029483;28;20052;-70
2022/11/25 07:23:27;;;;;;;21.92;7.55;;;10.00;99.90;;;;;;5026965;28;20033;-70
2022/11/25 07:25:53;;;;;;;23.45;9.60;;;10.10;99.90;;;;;;5025654;28;20056;-68
2022/11/25 07:28:19;;;;;;;23.98;8.75;;;10.10;99.90;;;;;;5025254;28;20037;-70
2022/11/25 07:30:44;;;;;;;21.90;7.63;;;10.20;99.90;;;;;;5027411;28;20120;-69
2022/11/25 07:33:10;;;;;;;16.42;7.13;;;9.70;99.90;;;;;;5019603;28;20128;-70
2022/11/25 07:35:36;;;;;;;16.35;7.18;;;10.10;99.90;;;;;;5028389;28;20046;-70
2022/11/25 07:38:01;;;;;;;14.52;6.22;;;9.80;99.90;;;;;;5026364;28;20128;-68
2022/11/25 07:40:27;;;;;;;22.45;8.15;;;9.80;99.90;;;;;;5027343;28;20597;-69
2022/11/25 07:42:53;;;;;;;15.90;6.30;;;10.20;99.90;;;;;;5023904;28;20430;-69
2022/11/25 07:45:19;;;;;;;26.67;9.40;;;9.70;99.90;;;;;;5022609;28;20045;-70
2022/11/25 07:47:45;;;;;;;14.55;7.05;;;10.00;99.90;;;;;;5026404;28;20037;-69
2022/11/25 07:50:10;;;;;;;15.43;6.00;;;9.90;99.90;;;;;;5023457;28;20465;-70
2022/11/25 07:52:37;;;;;;;14.13;6.55;;;9.80;99.90;;;;;;5028180;28;20044;-70
2022/11/25 07:55:03;;;;;;;15.05;6.43;;;10.00;99.90;;;;;;5025900;28;20401;-70
2022/11/25 07:57:29;;;;;;;16.33;6.47;;;10.20;99.90;;;;;;5007063;28;20049;-70
2022/11/25 07:59:54;;;;;;;16.45;6.85;;;9.90;99.90;;;;;;5026532;28;20132;-71
2022/11/25 08:02:20;;;;;;;17.33;7.25;;;9.80;99.90;;;;;;5025736;28;20084;-71
2022/11/25 08:04:45;;;;;;;19.75;7.95;;;10.00;99.90;;;;;;5021531;28;20037;-69
2022/11/25 08:07:11;;;;;;;22.52;8.15;;;10.20;99.90;;;;;;5029186;28;20042;-69
2022/11/25 08:09:36;;;;;;;23.45;8.45;;;9.90;99.90;;;;;;5025700;28;20447;-69
2022/11/25 08:12:02;;;;;;;15.32;6.88;;;10.20;99.90;;;;;;5026508;28;20058;-70
2022/11/25 08:14:27;;;;;;;13.20;6.53;;;10.20;99.90;;;;;;5022782;28;20410;-69
2022/11/25 08:16:53;;;;;;;14.23;7.40;;;10.00;99.90;;;;;;5027461;28;20566;-69
2022/11/25 08:19:19;;;;;;;14.68;6.55;;;10.40;99.90;;;;;;5027249;28;20128;-70
2022/11/25 08:21:46;;;;;;;19.90;8.43;;;10.00;99.90;;;;;;5023878;28;20060;-69
2022/11/25 08:24:15;;;;;;;16.88;7.40;;;10.00;99.90;;;;;;5027592;28;20546;-70
2022/11/25 08:26:40;;;;;;;15.68;7.75;;;10.40;99.90;;;;;;5028808;28;20037;-70
2022/11/25 08:29:06;;;;;;;17.95;6.53;;;10.10;99.90;;;;;;5024248;28;20495;-70
2022/11/25 08:31:34;;;;;;;9.57;5.53;;;10.50;99.90;;;;;;5012869;28;20427;-69
2022/11/25 08:34:01;;;;;;;15.23;6.55;;;10.50;99.90;;;;;;5022540;28;20044;-68
2022/11/25 08:36:28;;;;;;;16.38;5.95;;;10.40;99.90;;;;;;5025713;28;20083;-69
2022/11/25 08:38:58;;;;;;;18.00;6.68;;;10.40;99.90;;;;;;5025889;28;20038;-69
2022/11/25 08:41:31;;;;;;;19.58;7.93;;;10.60;99.90;;;;;;5025416;28;20048;-70
2022/11/25 08:43:58;;;;;;;18.15;8.23;;;10.60;99.90;;;;;;5022571;28;20045;-69
2022/11/25 08:46:27;;;;;;;16.75;8.32;;;10.30;99.90;;;;;;5031238;28;20045;-70
2022/11/25 08:48:53;;;;;;;17.85;8.13;;;10.80;99.90;;;;;;5028778;28;20040;-70
2022/11/25 08:51:22;;;;;;;19.60;8.00;;;10.90;99.90;;;;;;5026667;28;20053;-67
2022/11/25 08:53:50;;;;;;;17.45;7.53;;;10.60;99.90;;;;;;5028331;28;20045;-70
2022/11/25 08:56:16;;;;;;;18.50;7.95;;;10.90;99.90;;;;;;5020975;28;20495;-70
2022/11/25 08:58:42;;;;;;;19.02;7.70;;;10.60;99.90;;;;;;5023437;28;20107;-70
2022/11/25 09:01:09;;;;;;;17.67;7.63;;;10.70;99.90;;;;;;5027781;28;20037;-69
2022/11/25 09:03:37;;;;;;;14.48;6.30;;;10.70;99.90;;;;;;5031055;28;20060;-70
2022/11/25 09:06:04;;;;;;;15.40;5.97;;;11.00;99.90;;;;;;5015604;28;20041;-70
2022/11/25 09:08:31;;;;;;;12.35;6.07;;;10.90;99.90;;;;;;5026418;28;20045;-70
2022/11/25 09:10:57;;;;;;;15.40;6.13;;;11.00;99.90;;;;;;5026902;28;20057;-68
2022/11/25 09:13:22;;;;;;;15.65;6.35;;;10.90;99.90;;;;;;5023112;28;20065;-70
2022/11/25 09:15:48;;;;;;;15.88;6.72;;;11.10;99.90;;;;;;5008712;28;20419;-70
2022/11/25 09:18:14;;;;;;;15.82;6.60;;;11.10;99.90;;;;;;5027530;28;20033;-70
2022/11/25 09:20:40;;;;;;;13.75;6.32;;;11.10;99.90;;;;;;5024705;28;20026;-72
2022/11/25 09:23:07;;;;;;;14.93;6.10;;;10.90;99.90;;;;;;5026060;28;20029;-71
2022/11/25 09:25:33;;;;;;;18.58;5.95;;;11.30;99.90;;;;;;5029016;28;20045;-71
2022/11/25 09:27:59;;;;;;;16.77;6.20;;;11.30;99.90;;;;;;5028605;28;20038;-71
2022/11/25 09:30:25;;;;;;;16.83;5.45;;;11.00;99.90;;;;;;5030655;28;20098;-71
2022/11/25 09:32:53;;;;;;;13.75;5.72;;;11.10;99.90;;;;;;5032437;28;20094;-71
2022/11/25 09:35:20;;;;;;;10.82;5.13;;;10.80;99.90;;;;;;5030514;28;20491;-71
2022/11/25 09:37:45;;;;;;;19.20;6.20;;;10.90;99.90;;;;;;5022870;28;20120;-72
2022/11/25 09:40:34;;;;;;;18.48;5.85;;;11.20;99.90;;;;;;5019326;28;20555;-71
2022/11/25 09:46:40;;;;;;;15.70;4.97;;;10.80;99.90;;;;;;5031305;28;20052;-72
2022/11/25 09:49:10;;;;;;;15.07;5.05;;;11.10;99.90;;;;;;5032790;28;20048;-70
2022/11/25 09:51:55;;;;;;;19.48;5.22;;;11.30;99.90;;;;;;5031871;28;20037;-71
2022/11/25 09:54:28;;;;;;;21.90;5.63;;;11.20;99.90;;;;;;5028833;28;20442;-71
2022/11/25 09:57:03;;;;;;;18.80;5.53;;;11.30;99.90;;;;;;5032067;28;20111;-71
2022/11/25 09:59:39;;;;;;;12.82;4.47;;;11.50;99.90;;;;;;5031586;28;20189;-72
2022/11/25 10:02:20;;;;;;;11.63;4.22;;;11.40;99.90;;;;;;5029250;28;20530;-72
2022/11/25 10:05:04;;;;;;;17.00;4.97;;;11.30;99.90;;;;;;5027780;28;20033;-72
2022/11/25 10:07:40;;;;;;;16.13;4.75;;;11.30;99.90;;;;;;5032499;28;20050;-72
2022/11/25 10:10:09;;;;;;;;;;;11.40;99.90;;;;;;5032166;28;20667;-72
2022/11/25 10:12:41;;;;;;;12.63;4.35;;;11.60;99.90;;;;;;5029968;28;20405;-72
2022/11/25 10:15:24;;;;;;;17.13;5.05;;;11.50;99.90;;;;;;5031535;28;20091;-70
2022/11/25 10:17:54;;;;;;;12.43;4.47;;;11.60;99.90;;;;;;5026937;28;20469;-72
2022/11/25 10:20:28;;;;;;;19.45;5.30;;;11.60;99.90;;;;;;5032545;28;20037;-71
2022/11/25 10:22:59;;;;;;;13.90;4.25;;;11.50;99.90;;;;;;5023037;28;20124;-71
2022/11/25 10:25:29;;;;;;;11.68;4.32;;;11.40;99.90;;;;;;5019024;28;20393;-71
2022/11/25 10:28:14;;;;;;;14.15;5.00;;;11.40;99.90;;;;;;5023087;28;20036;-72
2022/11/25 10:31:01;;;;;;;14.63;4.65;;;11.40;99.90;;;;;;5027673;28;20079;-70
2022/11/25 10:33:38;;;;;;;18.33;5.10;;;11.50;99.90;;;;;;5026991;28;20124;-72
2022/11/25 10:36:15;;;;;;;12.25;4.22;;;11.40;99.90;;;;;;5012091;28;20045;-71
2022/11/25 10:38:47;;;;;;;9.98;3.42;;;11.50;99.90;;;;;;5022916;28;20056;-72
2022/11/25 10:41:17;;;;;;;14.02;3.97;;;12.00;99.90;;;;;;5031419;28;20041;-72
2022/11/25 10:43:45;;;;;;;11.63;3.50;;;11.80;99.90;;;;;;5022910;28;20042;-71
2022/11/25 10:46:28;;;;;;;14.88;3.45;;;11.90;99.90;;;;;;5028515;28;20053;-72
2022/11/25 10:49:27;;;;;;;14.85;3.25;;;11.80;99.90;;;;;;5028755;28;20521;-72
2022/11/25 10:51:53;;;;;;;16.23;4.25;;;11.70;99.90;;;;;;5022496;28;20041;-72
2022/11/25 10:54:24;;;;;;;20.25;4.00;;;12.10;99.90;;;;;;5030778;28;20041;-71
2022/11/25 10:56:51;;;;;;;21.95;4.13;;;12.00;99.90;;;;;;5030788;28;20071;-69
2022/11/25 10:59:23;;;;;;;18.60;3.80;;;11.90;99.90;;;;;;5025435;28;20128;-71
2022/11/25 11:01:52;;;;;;;12.70;3.50;;;12.10;99.90;;;;;;5030454;28;20037;-71
2022/11/25 11:04:18;;;;;;;19.17;4.00;;;11.90;99.90;;;;;;5017558;28;20029;-72
2022/11/25 11:06:46;;;;;;;16.13;4.00;;;12.10;99.90;;;;;;5027992;28;20033;-71
2022/11/25 11:09:34;;;;;;;16.55;3.70;;;12.20;99.90;;;;;;5023608;28;20124;-71
2022/11/25 11:12:20;;;;;;;13.35;3.92;;;11.90;99.90;;;;;;5025973;28;20061;-71
2022/11/25 11:14:46;;;;;;;19.67;4.00;;;12.00;99.90;;;;;;5026982;28;20128;-72
2022/11/25 11:17:28;;;;;;;25.13;3.95;;;12.40;99.90;;;;;;5025475;28;20111;-71
2022/11/25 11:20:07;;;;;;;25.40;3.67;;;12.70;99.90;;;;;;5032310;28;20491;-72
2022/11/25 11:22:35;;;;;;;22.48;3.67;;;12.90;99.90;;;;;;5032034;28;20430;-70
2022/11/25 11:25:20;;;;;;;21.38;3.88;;;13.00;99.90;;;;;;5021458;28;20069;-72
2022/11/25 11:27:47;;;;;;;21.88;3.35;;;13.00;99.90;;;;;;5023221;28;20034;-72
2022/11/25 11:30:24;;;;;;;20.88;4.20;;;13.20;99.90;;;;;;5030275;28;20540;-71
2022/11/25 11:33:03;;;;;;;29.83;4.32;;;13.30;99.90;;;;;;5030503;28;20051;-72
2022/11/25 11:35:49;;;;;;;32.75;4.22;;;13.30;99.90;;;;;;5019713;28;20551;-72
2022/11/25 11:38:27;;;;;;;21.05;3.88;;;13.20;1.00;;;;;;5016814;28;20060;-72
2022/11/25 11:41:12;;;;;;;20.70;3.25;;;13.10;1.00;;;;;;5022595;28;20025;-72
2022/11/25 11:43:59;;;;;;;35.47;3.63;;;12.60;1.00;;;;;;5025357;28;20034;-72
2022/11/25 11:46:45;;;;;;;26.13;4.03;;;12.50;99.90;;;;;;5027042;28;20073;-72
2022/11/25 11:49:25;;;;;;;28.10;4.35;;;12.30;99.90;;;;;;5022881;28;20042;-72
2022/11/25 11:52:01;;;;;;;24.65;3.53;;;12.30;99.90;;;;;;5023104;28;20491;-70
2022/11/25 11:54:43;;;;;;;22.15;3.63;;;12.30;99.90;;;;;;5024735;28;20483;-70
2022/11/25 11:57:27;;;;;;;20.98;3.42;;;12.10;99.90;;;;;;5020249;28;20045;-71
2022/11/25 12:00:01;;;;;;;21.17;3.75;;;12.20;99.90;;;;;;5027889;28;20431;-72
2022/11/25 12:02:51;;;;;;;30.23;4.25;;;12.30;99.90;;;;;;5026208;28;20507;-71
2022/11/25 12:05:20;;;;;;;27.00;3.95;;;12.70;30.50;;;;;;5024662;28;20052;-72
2022/11/25 12:08:12;;;;;;;19.58;3.45;;;12.60;1.00;;;;;;5026951;28;20045;-72
2022/11/25 12:10:41;;;;;;;27.40;3.92;;;12.90;1.00;;;;;;5024656;28;20124;-72
2022/11/25 12:13:16;;;;;;;23.98;3.58;;;13.10;99.90;;;;;;5025276;28;20446;-68
2022/11/25 12:16:03;;;;;;;25.13;4.50;;;13.10;1.00;;;;;;5024866;28;20412;-71
2022/11/25 12:18:48;;;;;;;23.23;3.63;;;13.20;99.90;;;;;;5022234;28;20053;-70
2022/11/25 12:21:25;;;;;;;25.17;4.05;;;13.20;99.90;;;;;;5030353;28;20511;-72
2022/11/25 12:24:09;;;;;;;26.45;3.70;;;13.10;1.00;;;;;;5029111;28;20499;-72
2022/11/25 12:26:59;;;;;;;25.63;4.22;;;13.20;99.90;;;;;;5045362;28;20037;-71
2022/11/25 12:30:07;;;;;;;28.80;4.13;;;13.10;99.90;;;;;;5031948;28;20054;-72
2022/11/25 12:33:00;;;;;;;21.92;3.28;;;13.00;72.50;;;;;;5023328;28;20081;-72
2022/11/25 12:35:51;;;;;;;29.50;4.45;;;13.20;99.90;;;;;;5028506;28;20056;-70
2022/11/25 12:38:37;;;;;;;22.77;3.53;;;13.20;99.90;;;;;;5022059;28;20081;-70
2022/11/25 12:41:24;;;;;;;30.58;3.38;;;13.20;99.90;;;;;;5026356;28;20060;-70
2022/11/25 12:44:02;;;;;;;31.02;3.53;;;13.10;99.90;;;;;;5028818;28;20402;-71
2022/11/25 12:46:36;;;;;;;27.02;3.92;;;13.10;99.90;;;;;;5033309;28;20049;-70
2022/11/25 12:49:03;;;;;;;22.52;3.65;;;13.20;99.90;;;;;;5030446;28;20046;-71
2022/11/25 12:51:37;;;;;;;28.38;3.85;;;13.10;99.90;;;;;;5028914;28;20033;-69
2022/11/25 12:54:27;;;;;;;25.45;4.13;;;13.10;91.00;;;;;;5033863;28;20103;-70
2022/11/25 12:57:07;;;;;;;28.67;3.40;;;13.00;80.80;;;;;;5020373;28;20037;-70
2022/11/25 13:00:08;;;;;;;19.95;3.08;;;13.10;99.90;;;;;;5030934;28;20072;-70